Time;durP1;ratioP1;P1;durP2;ratioP2;P2;SDS_P1;SDS_P2;PMS_P1;PMS_P2;Temp;Humidity;BMP_temperature;BMP_pressure;BME280_temperature;BME280_humidity;BME280_pressure;Samples;Min_cycle;Max_cycle;Signal;HPM_P1;HPM_P2
2022/04/06 00:00:12;;;;;;;8.18;3.05;;;13.80;68.60;;;;;;4979617;28;20102;-73
2022/04/06 00:02:39;;;;;;;7.95;2.88;;;13.90;68.70;;;;;;4980472;28;20508;-73
2022/04/06 00:05:09;;;;;;;10.27;2.60;;;13.90;68.70;;;;;;4976405;28;20454;-73
2022/04/06 00:07:35;;;;;;;12.07;2.42;;;13.80;68.70;;;;;;4959858;28;20190;-73
2022/04/06 00:10:01;;;;;;;10.00;2.75;;;13.90;68.70;;;;;;4976739;28;20053;-73
2022/04/06 00:12:27;;;;;;;10.75;3.03;;;13.90;68.70;;;;;;4977216;28;20047;-74
2022/04/06 00:14:52;;;;;;;8.25;2.85;;;13.90;68.70;;;;;;4977061;28;20043;-73
2022/04/06 00:17:18;;;;;;;10.13;3.10;;;13.80;68.70;;;;;;4976523;28;20481;-74
2022/04/06 00:19:43;;;;;;;8.73;2.78;;;13.90;68.70;;;;;;4976913;28;20043;-73
2022/04/06 00:22:09;;;;;;;7.68;2.95;;;13.90;68.70;;;;;;4976690;28;20078;-74
2022/04/06 00:24:35;;;;;;;9.75;3.47;;;13.80;68.70;;;;;;4976246;28;20471;-72
2022/04/06 00:27:01;;;;;;;10.20;3.55;;;13.80;68.60;;;;;;4976497;28;20046;-75
2022/04/06 00:29:27;;;;;;;6.50;3.08;;;13.80;68.70;;;;;;4976588;28;20102;-73
2022/04/06 00:31:52;;;;;;;10.05;3.10;;;13.80;68.70;;;;;;4984809;28;20062;-74
2022/04/06 00:34:18;;;;;;;10.13;3.25;;;13.80;68.70;;;;;;4995695;28;20393;-73
2022/04/06 00:36:44;;;;;;;10.52;3.53;;;13.80;68.70;;;;;;4978977;28;20046;-73
2022/04/06 00:39:11;;;;;;;7.53;2.75;;;13.80;68.70;;;;;;4995837;28;20094;-73
2022/04/06 00:41:38;;;;;;;8.23;3.33;;;13.80;68.70;;;;;;4995917;28;20076;-74
2022/04/06 00:44:15;;;;;;;9.07;3.00;;;13.80;68.60;;;;;;4995856;28;20062;-73
2022/04/06 00:46:45;;;;;;;13.10;3.47;;;13.80;68.50;;;;;;4995531;28;20066;-73
2022/04/06 00:49:14;;;;;;;9.77;3.35;;;13.80;68.50;;;;;;4995412;28;20105;-73
2022/04/06 00:51:48;;;;;;;7.88;3.00;;;13.80;68.50;;;;;;4996045;28;20362;-74
2022/04/06 00:54:14;;;;;;;5.95;2.35;;;13.80;68.40;;;;;;4978794;28;20366;-73
2022/04/06 00:56:42;;;;;;;7.45;2.78;;;13.80;68.50;;;;;;4995684;28;20061;-73
2022/04/06 00:59:08;;;;;;;9.73;2.92;;;13.80;68.50;;;;;;4995812;28;20062;-73
2022/04/06 01:01:35;;;;;;;7.93;2.55;;;13.80;68.50;;;;;;5001254;28;20034;-73
2022/04/06 01:04:01;;;;;;;5.15;2.50;;;13.80;68.50;;;;;;5014890;28;20038;-74
2022/04/06 01:06:26;;;;;;;5.32;2.40;;;13.80;68.40;;;;;;5015333;28;20339;-73
2022/04/06 01:08:52;;;;;;;10.05;2.95;;;13.80;68.40;;;;;;4981840;28;20125;-74
2022/04/06 01:11:19;;;;;;;8.40;2.63;;;13.80;68.30;;;;;;5015474;28;20053;-73
2022/04/06 01:13:46;;;;;;;19.77;2.35;;;13.80;68.40;;;;;;5015313;28;20050;-75
2022/04/06 01:16:12;;;;;;;9.05;2.25;;;13.80;68.40;;;;;;5015662;28;20046;-73
2022/04/06 01:18:39;;;;;;;7.57;2.15;;;13.80;68.30;;;;;;5015589;28;20058;-74
2022/04/06 01:21:05;;;;;;;5.55;1.98;;;13.90;68.30;;;;;;4983680;28;20180;-73
2022/04/06 01:23:31;;;;;;;8.50;2.03;;;13.80;68.00;;;;;;5019221;28;20136;-73
2022/04/06 01:25:57;;;;;;;8.38;2.35;;;13.80;67.90;;;;;;5001862;28;20046;-73
2022/04/06 01:28:24;;;;;;;7.50;2.20;;;13.90;67.90;;;;;;5001549;28;20137;-75
2022/04/06 01:30:49;;;;;;;6.22;1.60;;;13.80;67.90;;;;;;4982245;28;20189;-75
2022/04/06 01:33:15;;;;;;;6.78;1.80;;;13.80;67.90;;;;;;4999729;28;20117;-72
2022/04/06 01:35:42;;;;;;;7.53;2.40;;;13.80;67.70;;;;;;4999473;28;20382;-73
2022/04/06 01:38:09;;;;;;;9.73;2.47;;;13.80;67.70;;;;;;4998903;28;20053;-73
2022/04/06 01:40:35;;;;;;;7.20;1.55;;;13.80;67.70;;;;;;4999315;28;20050;-74
2022/04/06 01:43:01;;;;;;;8.20;2.22;;;13.80;67.60;;;;;;4998906;28;20334;-74
2022/04/06 01:45:27;;;;;;;7.43;2.25;;;13.80;67.40;;;;;;4991040;28;20061;-74
2022/04/06 01:47:54;;;;;;;8.20;2.05;;;13.80;67.50;;;;;;4998935;28;20085;-73
2022/04/06 01:53:04;;;;;;;8.95;2.63;;;13.80;67.40;;;;;;4998671;28;20133;-73
2022/04/06 01:55:29;;;;;;;7.25;2.30;;;13.70;67.40;;;;;;4998707;28;20096;-73
2022/04/06 01:57:57;;;;;;;7.75;2.38;;;13.70;67.30;;;;;;4998652;28;20046;-73
2022/04/06 02:00:22;;;;;;;5.88;1.77;;;13.70;67.20;;;;;;4999005;28;20425;-73
2022/04/06 02:02:52;;;;;;;6.70;1.95;;;13.70;67.30;;;;;;4997970;28;20178;-73
2022/04/06 02:05:20;;;;;;;6.50;1.63;;;13.70;67.30;;;;;;5017707;28;20104;-73
2022/04/06 02:07:50;;;;;;;5.93;1.80;;;13.80;67.30;;;;;;5018389;28;20042;-73
2022/04/06 02:10:17;;;;;;;7.35;1.60;;;13.70;67.10;;;;;;5018085;28;20053;-73
2022/04/06 02:12:44;;;;;;;5.90;1.27;;;13.70;67.10;;;;;;5018369;28;20342;-72
2022/04/06 02:15:12;;;;;;;4.05;1.30;;;13.70;67.00;;;;;;5018046;28;20123;-74
2022/04/06 02:17:38;;;;;;;5.10;1.48;;;13.70;67.00;;;;;;5018096;28;20056;-73
2022/04/06 02:20:04;;;;;;;6.90;1.52;;;13.70;67.00;;;;;;5000633;28;20045;-73
2022/04/06 02:22:30;;;;;;;9.57;2.05;;;13.70;67.00;;;;;;5018116;28;20042;-76
2022/04/06 02:24:56;;;;;;;7.03;1.55;;;13.70;67.00;;;;;;5017772;28;20060;-73
2022/04/06 02:27:22;;;;;;;6.55;1.75;;;13.70;67.00;;;;;;5017622;28;20548;-72
2022/04/06 02:29:48;;;;;;;7.82;1.70;;;13.80;66.90;;;;;;5017651;28;20049;-73
2022/04/06 02:32:14;;;;;;;5.72;1.50;;;13.80;66.80;;;;;;5005447;28;20226;-73
2022/04/06 02:34:39;;;;;;;8.82;1.70;;;13.80;66.70;;;;;;4998330;28;20526;-72
2022/04/06 02:37:09;;;;;;;7.28;1.50;;;13.70;66.70;;;;;;4981121;28;20051;-74
2022/04/06 02:39:35;;;;;;;6.72;1.50;;;13.70;66.70;;;;;;4997860;28;20073;-73
2022/04/06 02:42:01;;;;;;;7.63;1.73;;;13.70;66.70;;;;;;4998251;28;20096;-72
2022/04/06 02:44:27;;;;;;;6.18;1.50;;;13.70;66.60;;;;;;4998051;28;20120;-72
2022/04/06 02:46:53;;;;;;;11.82;2.70;;;13.70;66.60;;;;;;4997821;28;20373;-72
2022/04/06 02:49:19;;;;;;;8.73;1.83;;;13.70;66.70;;;;;;4998035;28;20090;-73
2022/04/06 02:51:46;;;;;;;6.72;1.75;;;13.70;66.70;;;;;;4998556;28;20100;-73
2022/04/06 02:54:12;;;;;;;4.30;1.45;;;13.70;66.80;;;;;;4997536;28;20116;-72
2022/04/06 02:56:38;;;;;;;7.95;1.80;;;13.60;66.80;;;;;;5017151;28;20090;-73
2022/04/06 02:59:03;;;;;;;5.72;2.00;;;13.70;67.00;;;;;;4981402;28;20078;-74
2022/04/06 03:01:29;;;;;;;7.88;1.58;;;13.60;66.90;;;;;;5005778;28;20039;-73
2022/04/06 03:03:55;;;;;;;8.15;1.70;;;13.60;66.90;;;;;;5016803;28;20095;-72
2022/04/06 03:06:21;;;;;;;5.78;1.83;;;13.70;66.90;;;;;;4999988;28;20057;-74
2022/04/06 03:08:47;;;;;;;7.82;1.67;;;13.60;66.90;;;;;;5000695;28;20437;-72
2022/04/06 03:11:13;;;;;;;6.32;1.70;;;13.60;66.90;;;;;;5017260;28;20054;-72
2022/04/06 03:13:39;;;;;;;8.10;1.83;;;13.60;66.90;;;;;;4999682;28;20053;-73
2022/04/06 03:16:05;;;;;;;7.93;1.63;;;13.60;66.80;;;;;;5016694;28;20112;-72
2022/04/06 03:18:31;;;;;;;5.25;1.73;;;13.60;66.90;;;;;;5017069;28;20077;-72
2022/04/06 03:20:57;;;;;;;8.35;2.08;;;13.60;67.00;;;;;;5016768;28;20105;-73
2022/04/06 03:23:23;;;;;;;7.18;1.95;;;13.60;67.00;;;;;;4999239;28;20084;-73
2022/04/06 03:25:49;;;;;;;8.00;1.88;;;13.60;67.00;;;;;;5016823;28;20508;-73
2022/04/06 03:28:15;;;;;;;6.03;1.95;;;13.60;67.00;;;;;;5018268;28;20072;-74
2022/04/06 03:30:41;;;;;;;8.63;2.40;;;13.60;67.10;;;;;;5010635;28;20050;-74
2022/04/06 03:33:09;;;;;;;6.15;1.70;;;13.60;67.10;;;;;;4999069;28;20112;-73
2022/04/06 03:35:36;;;;;;;7.32;1.90;;;13.60;67.20;;;;;;5015688;28;20365;-73
2022/04/06 03:38:01;;;;;;;6.55;2.25;;;13.60;67.20;;;;;;5016148;28;20045;-72
2022/04/06 03:40:31;;;;;;;9.63;2.38;;;13.60;67.30;;;;;;5016124;28;20045;-73
2022/04/06 03:42:57;;;;;;;7.03;2.20;;;13.60;67.40;;;;;;4994618;28;20394;-73
2022/04/06 03:45:23;;;;;;;7.78;2.25;;;13.50;67.40;;;;;;5008138;28;20057;-73
2022/04/06 03:47:49;;;;;;;8.30;1.95;;;13.50;67.40;;;;;;5016051;28;20115;-73
2022/04/06 03:50:15;;;;;;;7.90;2.00;;;13.50;67.50;;;;;;5016059;28;20050;-72
2022/04/06 03:52:41;;;;;;;9.23;2.28;;;13.50;67.50;;;;;;4982559;28;20495;-73
2022/04/06 03:55:08;;;;;;;8.55;2.45;;;13.50;67.60;;;;;;4982606;28;20053;-72
2022/04/06 03:57:38;;;;;;;7.93;2.13;;;13.60;67.60;;;;;;4995078;28;20054;-72
2022/04/06 04:00:05;;;;;;;6.72;2.53;;;13.50;67.60;;;;;;5011615;28;20053;-73
2022/04/06 04:02:31;;;;;;;10.35;2.83;;;13.50;67.60;;;;;;5010301;28;20080;-72
2022/04/06 04:04:57;;;;;;;8.07;2.97;;;13.50;67.60;;;;;;5015632;28;20046;-73
2022/04/06 04:07:23;;;;;;;8.10;2.65;;;13.50;67.70;;;;;;5015857;28;20038;-73
2022/04/06 04:09:50;;;;;;;9.43;2.30;;;13.50;67.80;;;;;;5016053;28;20409;-74
2022/04/06 04:12:16;;;;;;;7.45;2.13;;;13.50;67.80;;;;;;5015712;28;20048;-74
2022/04/06 04:14:43;;;;;;;6.20;2.20;;;13.50;67.90;;;;;;5015581;28;20041;-72
2022/04/06 04:17:09;;;;;;;10.65;2.38;;;13.50;68.00;;;;;;5008467;28;20437;-72
2022/04/06 04:19:35;;;;;;;7.30;1.90;;;13.50;68.00;;;;;;5012629;28;20131;-76
2022/04/06 04:22:01;;;;;;;12.95;2.38;;;13.60;68.10;;;;;;5002911;28;20049;-73
2022/04/06 04:24:29;;;;;;;9.27;2.17;;;13.60;68.10;;;;;;5015418;28;20046;-81
2022/04/06 04:26:55;;;;;;;9.48;2.35;;;13.60;68.00;;;;;;4981572;28;20457;-78
2022/04/06 04:29:21;;;;;;;11.00;2.22;;;13.70;67.90;;;;;;4998152;28;20111;-76
2022/04/06 04:31:47;;;;;;;9.93;2.88;;;13.70;67.70;;;;;;5014735;28;20034;-78
2022/04/06 04:34:13;;;;;;;15.50;3.67;;;13.80;67.60;;;;;;5015018;28;20037;-76
2022/04/06 04:36:39;;;;;;;8.57;2.38;;;13.80;67.70;;;;;;5007227;28;20100;-77
2022/04/06 04:39:04;;;;;;;9.05;2.42;;;13.80;68.00;;;;;;5015513;28;20034;-75
2022/04/06 04:41:30;;;;;;;11.65;2.22;;;13.80;68.30;;;;;;5010177;28;20358;-72
2022/04/06 04:43:56;;;;;;;10.93;1.90;;;13.80;67.80;;;;;;5002793;28;20053;-74
2022/04/06 04:46:22;;;;;;;5.97;1.88;;;13.90;67.40;;;;;;4996932;28;20085;-77
2022/04/06 04:48:48;;;;;;;8.07;1.95;;;14.10;67.10;;;;;;5014803;28;20049;-78
2022/04/06 04:51:14;;;;;;;10.00;2.35;;;14.30;66.80;;;;;;5015067;28;20092;-76
2022/04/06 04:53:41;;;;;;;6.95;1.67;;;14.50;66.60;;;;;;5014773;28;20434;-74
2022/04/06 04:56:10;;;;;;;5.03;1.80;;;14.70;66.40;;;;;;5015317;28;20046;-75
2022/04/06 04:58:36;;;;;;;10.23;2.40;;;14.90;66.20;;;;;;5017064;28;20120;-71
2022/04/06 05:01:03;;;;;;;7.10;1.58;;;15.10;65.90;;;;;;4985274;28;20077;-70
2022/04/06 05:03:28;;;;;;;8.68;2.25;;;15.30;65.80;;;;;;5025065;28;20135;-69
2022/04/06 05:05:56;;;;;;;5.65;2.20;;;15.50;65.40;;;;;;5017817;28;20454;-77
2022/04/06 05:08:23;;;;;;;9.40;1.90;;;15.50;65.10;;;;;;5014740;28;20080;-82
2022/04/06 05:10:49;;;;;;;5.88;1.38;;;15.60;65.20;;;;;;5019050;28;20045;-77
2022/04/06 05:13:17;;;;;;;6.05;1.55;;;15.60;64.90;;;;;;5027136;28;20045;-74
2022/04/06 05:15:44;;;;;;;8.27;1.85;;;15.70;64.90;;;;;;5034543;28;20045;-76
2022/04/06 05:18:10;;;;;;;11.30;2.08;;;15.80;64.80;;;;;;5033114;28;20367;-79
2022/04/06 05:20:39;;;;;;;17.65;2.40;;;15.80;64.70;;;;;;5035396;28;20128;-77
2022/04/06 05:23:05;;;;;;;20.10;3.20;;;15.90;64.70;;;;;;5034837;28;20064;-78
2022/04/06 05:25:30;;;;;;;9.27;2.20;;;15.90;64.50;;;;;;5032073;28;20053;-77
2022/04/06 05:27:56;;;;;;;15.73;2.42;;;16.00;64.50;;;;;;5034951;28;20080;-75
2022/04/06 05:30:23;;;;;;;12.38;2.25;;;16.00;64.50;;;;;;5031279;28;20056;-78
2022/04/06 05:32:51;;;;;;;11.27;2.53;;;16.10;64.70;;;;;;5015049;28;20052;-75
2022/04/06 05:35:17;;;;;;;12.95;2.70;;;16.00;62.90;;;;;;4990179;28;20043;-76
2022/04/06 05:37:45;;;;;;;12.90;2.47;;;15.50;63.30;;;;;;4978536;28;20451;-76
2022/04/06 05:40:12;;;;;;;11.05;2.30;;;15.80;65.10;;;;;;4995111;28;20050;-75
2022/04/06 05:42:38;;;;;;;11.50;2.00;;;15.70;62.70;;;;;;4978355;28;20515;-82
2022/04/06 05:45:06;;;;;;;11.70;2.28;;;15.80;65.20;;;;;;4995134;28;20104;-76
2022/04/06 05:47:33;;;;;;;12.82;2.47;;;16.00;65.20;;;;;;4995519;28;20050;-74
2022/04/06 05:49:59;;;;;;;9.10;2.00;;;16.20;64.60;;;;;;4977837;28;20109;-72
2022/04/06 05:52:25;;;;;;;8.93;1.90;;;16.30;62.90;;;;;;4995661;28;20196;-76
2022/04/06 05:54:53;;;;;;;7.93;1.85;;;16.00;64.20;;;;;;4995779;28;20121;-74
2022/04/06 05:57:20;;;;;;;8.80;1.48;;;16.30;64.50;;;;;;4995161;28;20373;-76
2022/04/06 05:59:46;;;;;;;12.80;1.85;;;16.40;64.30;;;;;;4994717;28;20056;-75
2022/04/06 06:02:16;;;;;;;11.00;2.20;;;16.30;62.70;;;;;;4994880;28;20046;-81
2022/04/06 06:04:42;;;;;;;12.55;2.15;;;16.40;64.40;;;;;;4978066;28;20049;-76
2022/04/06 06:07:08;;;;;;;12.02;2.35;;;16.50;63.60;;;;;;4997536;28;20050;-76
2022/04/06 06:09:37;;;;;;;8.82;2.58;;;16.60;64.00;;;;;;4998481;28;20053;-81
2022/04/06 06:12:03;;;;;;;13.40;2.35;;;16.70;64.00;;;;;;4998704;28;20358;-76
2022/04/06 06:14:29;;;;;;;10.43;1.80;;;16.80;63.80;;;;;;4981627;28;20102;-78
2022/04/06 06:16:55;;;;;;;8.40;1.88;;;16.90;63.80;;;;;;4981026;28;20465;-76
2022/04/06 06:19:21;;;;;;;10.40;1.88;;;17.00;63.40;;;;;;4981130;28;20093;-77
2022/04/06 06:21:46;;;;;;;10.43;1.92;;;17.00;63.00;;;;;;4981214;28;20057;-78
2022/04/06 06:24:13;;;;;;;8.82;1.75;;;17.00;62.80;;;;;;4998267;28;20093;-78
2022/04/06 06:26:42;;;;;;;8.68;1.80;;;17.00;62.70;;;;;;4998469;28;20042;-77
2022/04/06 06:29:08;;;;;;;10.32;2.30;;;17.00;62.70;;;;;;4998287;28;20125;-76
2022/04/06 06:31:34;;;;;;;8.88;1.63;;;16.90;62.60;;;;;;4997857;28;20138;-77
2022/04/06 06:34:00;;;;;;;10.55;2.42;;;16.90;62.60;;;;;;4981143;28;20058;-76
2022/04/06 06:36:25;;;;;;;9.95;1.95;;;16.90;62.60;;;;;;4998123;28;20061;-76
2022/04/06 06:38:52;;;;;;;9.27;1.70;;;16.80;62.60;;;;;;4997591;28;20454;-77
2022/04/06 06:41:19;;;;;;;6.85;1.48;;;16.80;62.50;;;;;;5014808;28;20484;-76
2022/04/06 06:43:48;;;;;;;8.82;2.22;;;16.70;62.40;;;;;;5017094;28;20370;-76
2022/04/06 06:46:18;;;;;;;9.88;1.85;;;16.70;62.50;;;;;;5000234;28;20042;-76
2022/04/06 06:48:44;;;;;;;6.07;1.92;;;16.60;62.70;;;;;;5000171;28;20449;-76
2022/04/06 06:51:10;;;;;;;7.55;1.70;;;16.60;62.80;;;;;;4999958;28;20042;-76
2022/04/06 06:53:35;;;;;;;8.32;1.30;;;16.50;62.80;;;;;;5016999;28;20033;-77
2022/04/06 06:56:01;;;;;;;6.40;1.60;;;16.50;62.90;;;;;;5017072;28;20472;-78
2022/04/06 06:58:27;;;;;;;7.78;1.52;;;16.40;62.90;;;;;;5000311;28;20073;-76
2022/04/06 07:00:52;;;;;;;7.63;1.40;;;16.40;62.90;;;;;;5016296;28;20046;-77
2022/04/06 07:03:18;;;;;;;5.05;1.70;;;16.40;63.00;;;;;;4999787;28;20131;-76
2022/04/06 07:05:45;;;;;;;5.38;1.60;;;16.30;63.00;;;;;;5017090;28;20049;-75
2022/04/06 07:08:11;;;;;;;8.45;1.60;;;16.30;63.00;;;;;;5016665;28;20070;-76
2022/04/06 07:10:37;;;;;;;6.13;1.40;;;16.30;63.00;;;;;;5017056;28;20193;-77
2022/04/06 07:13:03;;;;;;;7.90;1.73;;;16.20;63.10;;;;;;5016749;28;20049;-76
2022/04/06 07:15:29;;;;;;;6.95;1.35;;;16.20;63.10;;;;;;5000013;28;20054;-78
2022/04/06 07:17:58;;;;;;;6.38;1.55;;;16.20;63.20;;;;;;5016998;28;20046;-77
2022/04/06 07:20:26;;;;;;;8.20;1.42;;;16.10;63.10;;;;;;5017067;28;20124;-76
2022/04/06 07:22:52;;;;;;;10.48;2.17;;;16.10;63.10;;;;;;5016643;28;20434;-76
2022/04/06 07:25:19;;;;;;;6.70;1.50;;;16.10;63.20;;;;;;5016585;28;20179;-77
2022/04/06 07:27:45;;;;;;;7.22;1.58;;;16.10;63.20;;;;;;5016685;28;20041;-76
2022/04/06 07:30:12;;;;;;;5.95;1.33;;;16.00;63.20;;;;;;4995596;28;20061;-77
2022/04/06 07:32:38;;;;;;;5.90;1.30;;;16.00;63.30;;;;;;4996528;28;20121;-78
2022/04/06 07:35:05;;;;;;;6.47;1.92;;;16.00;63.30;;;;;;4996936;28;20207;-77
2022/04/06 07:37:42;;;;;;;4.90;1.52;;;15.90;63.30;;;;;;4996879;28;20370;-76
2022/04/06 07:40:10;;;;;;;6.13;1.42;;;15.90;63.20;;;;;;4979990;28;20057;-76
2022/04/06 07:42:37;;;;;;;4.97;1.10;;;15.90;63.30;;;;;;4979985;28;20065;-78
2022/04/06 07:45:13;;;;;;;8.10;1.50;;;15.80;63.30;;;;;;4996783;28;20483;-77
2022/04/06 07:47:40;;;;;;;5.10;1.40;;;15.80;63.40;;;;;;4995777;28;20058;-75
2022/04/06 07:50:07;;;;;;;4.35;1.10;;;15.80;63.50;;;;;;5002995;28;20038;-78
2022/04/06 07:52:34;;;;;;;6.32;1.50;;;15.80;63.60;;;;;;5035846;28;20412;-76
2022/04/06 07:55:00;;;;;;;4.60;1.52;;;15.80;63.60;;;;;;5036181;28;20041;-79
2022/04/06 07:57:27;;;;;;;4.93;1.42;;;15.80;63.60;;;;;;5035895;28;20053;-77
2022/04/06 07:59:54;;;;;;;6.50;1.50;;;15.80;63.60;;;;;;5029139;28;20038;-76
2022/04/06 08:02:20;;;;;;;4.80;1.10;;;15.80;63.60;;;;;;5002777;28;20129;-77
2022/04/06 08:04:46;;;;;;;3.85;1.20;;;15.80;63.70;;;;;;4979485;28;20086;-76
2022/04/06 08:07:12;;;;;;;6.38;1.20;;;15.80;63.50;;;;;;4996319;28;20086;-76
2022/04/06 08:09:38;;;;;;;4.65;1.20;;;15.70;63.50;;;;;;4996374;28;20043;-77
2022/04/06 08:12:04;;;;;;;6.53;1.65;;;15.70;63.40;;;;;;5012025;28;20385;-76
2022/04/06 08:14:30;;;;;;;9.95;2.03;;;15.70;63.40;;;;;;4988052;28;20121;-76
2022/04/06 08:16:56;;;;;;;7.82;1.20;;;15.70;63.40;;;;;;5015983;28;20142;-76
2022/04/06 08:19:25;;;;;;;5.18;1.30;;;15.70;63.40;;;;;;5016105;28;20068;-77
2022/04/06 08:21:52;;;;;;;4.20;1.13;;;15.70;63.30;;;;;;5015158;28;20121;-75
2022/04/06 08:24:19;;;;;;;3.58;1.17;;;15.70;63.30;;;;;;5014735;28;20478;-76
2022/04/06 08:26:45;;;;;;;5.57;1.35;;;15.70;63.20;;;;;;4997735;28;20042;-76
2022/04/06 08:29:12;;;;;;;7.45;2.00;;;15.70;63.20;;;;;;4997396;28;20058;-76
2022/04/06 08:31:37;;;;;;;7.60;1.60;;;15.70;63.20;;;;;;4994135;28;20046;-77
2022/04/06 08:34:06;;;;;;;8.65;1.70;;;15.70;63.20;;;;;;4996350;28;20150;-78
2022/04/06 08:36:32;;;;;;;4.95;0.93;;;15.70;63.20;;;;;;4979103;28;20045;-77
2022/04/06 08:39:01;;;;;;;5.28;1.08;;;15.70;63.20;;;;;;4996194;28;20362;-78
2022/04/06 08:41:29;;;;;;;6.10;1.60;;;15.70;63.30;;;;;;4995404;28;20061;-75
2022/04/06 08:43:55;;;;;;;7.65;1.48;;;15.70;63.30;;;;;;4990967;28;20050;-76
2022/04/06 08:46:21;;;;;;;4.88;1.20;;;15.70;63.30;;;;;;5014739;28;20057;-76
2022/04/06 08:48:48;;;;;;;5.75;1.65;;;15.60;63.20;;;;;;5015334;28;20053;-78
2022/04/06 08:51:16;;;;;;;6.43;1.13;;;15.70;63.20;;;;;;5015515;28;20450;-77
2022/04/06 08:53:43;;;;;;;5.18;1.20;;;15.70;63.10;;;;;;5015390;28;20053;-78
2022/04/06 08:56:09;;;;;;;7.20;1.42;;;15.70;63.10;;;;;;5015523;28;20049;-76
2022/04/06 08:58:35;;;;;;;6.93;1.35;;;15.70;63.10;;;;;;5015196;28;20073;-76
2022/04/06 09:01:00;;;;;;;3.22;1.08;;;15.70;63.10;;;;;;5015086;28;20124;-78
2022/04/06 09:03:26;;;;;;;6.38;1.33;;;15.60;63.20;;;;;;5015033;28;20046;-78
2022/04/06 09:06:05;;;;;;;8.50;1.42;;;15.60;63.10;;;;;;5008131;28;20070;-75
2022/04/06 09:08:41;;;;;;;8.32;1.50;;;15.60;62.80;;;;;;4988167;28;20088;-76
2022/04/06 09:11:22;;;;;;;4.03;0.90;;;15.60;62.90;;;;;;4995138;28;20050;-78
2022/04/06 09:13:58;;;;;;;6.40;1.13;;;15.70;62.90;;;;;;4995381;28;20049;-78
2022/04/06 09:16:31;;;;;;;6.45;1.13;;;15.80;62.90;;;;;;5012309;28;20088;-76
2022/04/06 09:19:05;;;;;;;7.03;1.63;;;16.00;62.80;;;;;;5015115;28;20478;-77
2022/04/06 09:21:32;;;;;;;8.38;1.35;;;16.10;62.60;;;;;;5015159;28;20367;-75
2022/04/06 09:23:58;;;;;;;6.22;1.17;;;16.20;62.60;;;;;;5014864;28;20061;-76
2022/04/06 09:26:25;;;;;;;6.20;1.38;;;16.20;62.50;;;;;;5014939;28;20120;-73
2022/04/06 09:28:51;;;;;;;9.90;1.15;;;16.30;62.60;;;;;;5015035;28;20048;-75
2022/04/06 09:31:19;;;;;;;5.80;1.48;;;16.30;62.50;;;;;;5015127;28;20046;-74
2022/04/06 09:34:00;;;;;;;7.13;1.35;;;16.30;62.50;;;;;;5015043;28;20046;-76
2022/04/06 09:36:28;;;;;;;5.35;1.33;;;16.30;62.60;;;;;;4997625;28;20046;-75
2022/04/06 09:38:54;;;;;;;5.80;1.48;;;16.40;62.60;;;;;;5015252;28;20054;-76
2022/04/06 09:41:20;;;;;;;6.32;1.38;;;16.40;62.60;;;;;;5018474;28;20107;-75
2022/04/06 09:43:47;;;;;;;7.38;1.05;;;16.40;62.50;;;;;;5001249;28;20401;-77
2022/04/06 09:49:13;;;;;;;5.03;0.85;;;16.50;62.40;;;;;;5018278;28;20050;-77
2022/04/06 09:51:43;;;;;;;3.45;1.00;;;16.50;62.20;;;;;;5015996;28;20568;-77
2022/04/06 09:54:12;;;;;;;7.07;1.05;;;16.60;62.30;;;;;;4973177;28;20033;-73
2022/04/06 09:56:38;;;;;;;4.45;1.02;;;16.70;62.10;;;;;;5018270;28;20045;-75
2022/04/06 09:59:04;;;;;;;6.65;1.23;;;16.80;61.90;;;;;;4997441;28;20089;-76
2022/04/06 10:01:32;;;;;;;6.43;1.35;;;16.80;62.00;;;;;;4988425;28;20373;-76
2022/04/06 10:04:03;;;;;;;6.32;1.00;;;16.90;61.70;;;;;;4997288;28;20465;-77
2022/04/06 10:06:34;;;;;;;8.52;1.45;;;17.00;61.60;;;;;;4998339;28;20046;-77
2022/04/06 10:09:01;;;;;;;5.50;1.58;;;17.00;61.50;;;;;;4998805;28;20061;-76
2022/04/06 10:11:28;;;;;;;7.22;1.55;;;17.10;61.50;;;;;;4998531;28;20121;-76
2022/04/06 10:13:55;;;;;;;7.82;1.50;;;17.10;61.40;;;;;;4998303;28;20144;-76
2022/04/06 10:16:23;;;;;;;4.07;1.08;;;17.20;61.30;;;;;;4999254;28;20358;-76
2022/04/06 10:18:51;;;;;;;6.25;1.10;;;17.20;61.20;;;;;;4998314;28;20057;-76
2022/04/06 10:21:53;;;;;;;3.50;0.93;;;17.20;61.20;;;;;;5004061;28;20365;-75
2022/04/06 10:24:45;;;;;;;6.57;1.27;;;17.20;61.10;;;;;;4999112;28;20520;-75
2022/04/06 10:27:31;;;;;;;4.53;1.10;;;17.20;61.10;;;;;;5006887;28;20054;-77
2022/04/06 10:30:06;;;;;;;3.28;0.93;;;17.20;61.40;;;;;;5013040;28;20042;-75
2022/04/06 10:32:35;;;;;;;4.78;1.40;;;17.20;61.10;;;;;;5006958;28;20378;-76
2022/04/06 10:35:24;;;;;;;5.22;1.15;;;17.30;61.20;;;;;;5000729;28;20054;-78
2022/04/06 10:37:55;;;;;;;6.00;1.27;;;17.20;61.00;;;;;;4996628;28;20065;-76
2022/04/06 10:40:21;;;;;;;5.10;1.10;;;17.20;61.10;;;;;;4998120;28;20047;-76
2022/04/06 10:42:47;;;;;;;4.47;1.13;;;17.20;60.90;;;;;;4998001;28;20076;-71
2022/04/06 10:45:25;;;;;;;5.15;1.30;;;17.20;60.90;;;;;;4996962;28;20125;-76
2022/04/06 10:48:18;;;;;;;8.02;1.45;;;17.20;60.80;;;;;;5008592;28;20053;-75
2022/04/06 10:50:45;;;;;;;8.25;1.50;;;17.20;60.80;;;;;;5009908;28;20046;-77
2022/04/06 10:53:33;;;;;;;6.10;1.17;;;17.20;61.00;;;;;;4996281;28;20477;-76
2022/04/06 10:56:11;;;;;;;6.65;1.45;;;17.20;61.10;;;;;;4997469;28;20362;-78
2022/04/06 10:58:55;;;;;;;4.28;0.93;;;17.20;61.10;;;;;;4997005;28;20157;-76
2022/04/06 11:01:26;;;;;;;6.35;1.20;;;17.20;61.10;;;;;;4997584;28;20042;-77
2022/04/06 11:04:04;;;;;;;7.07;1.55;;;17.20;61.10;;;;;;4971586;28;20077;-75
2022/04/06 11:06:48;;;;;;;5.18;1.45;;;17.20;61.20;;;;;;4996502;28;20117;-76
2022/04/06 11:12:21;;;;;;;7.63;1.75;;;17.30;61.30;;;;;;4997156;28;20133;-76
2022/04/06 11:15:00;;;;;;;5.35;1.13;;;17.20;61.20;;;;;;4980380;28;20061;-76
2022/04/06 11:17:34;;;;;;;5.68;1.38;;;17.30;61.20;;;;;;4997239;28;20068;-76
2022/04/06 11:20:06;;;;;;;7.05;1.58;;;17.30;61.20;;;;;;4980665;28;20089;-75
2022/04/06 11:22:32;;;;;;;6.32;1.58;;;17.30;61.20;;;;;;5003566;28;20080;-75
2022/04/06 11:24:59;;;;;;;3.17;1.02;;;17.30;61.30;;;;;;5036384;28;20089;-76
2022/04/06 11:27:35;;;;;;;5.45;1.50;;;17.30;61.40;;;;;;5019198;28;20045;-77
2022/04/06 11:30:09;;;;;;;7.43;1.60;;;17.20;61.20;;;;;;5018943;28;20049;-76
2022/04/06 11:32:36;;;;;;;4.07;1.00;;;17.20;61.10;;;;;;5003454;28;20536;-77
2022/04/06 11:35:07;;;;;;;5.32;1.42;;;17.20;61.10;;;;;;5019046;28;20118;-76
2022/04/06 11:37:46;;;;;;;8.02;1.60;;;17.20;61.00;;;;;;5036400;28;20038;-77
2022/04/06 11:40:13;;;;;;;7.75;1.80;;;17.10;61.10;;;;;;5024452;28;20057;-75
2022/04/06 11:42:39;;;;;;;6.72;1.33;;;17.10;61.00;;;;;;4999745;28;20061;-77
2022/04/06 11:45:06;;;;;;;9.70;1.70;;;17.10;61.10;;;;;;5015610;28;20058;-77
2022/04/06 11:47:34;;;;;;;6.28;1.50;;;17.00;61.10;;;;;;5009299;28;20042;-77
2022/04/06 11:50:01;;;;;;;8.20;1.48;;;17.10;61.30;;;;;;4997193;28;20377;-78
2022/04/06 11:52:27;;;;;;;8.85;1.80;;;17.00;61.20;;;;;;5002545;28;20077;-77
2022/04/06 11:54:54;;;;;;;8.32;1.60;;;17.00;61.20;;;;;;5016249;28;20453;-76
2022/04/06 11:57:32;;;;;;;7.25;1.77;;;16.90;61.20;;;;;;5016493;28;20129;-76
2022/04/06 11:59:57;;;;;;;7.15;1.58;;;16.90;61.80;;;;;;5016164;28;20057;-77
2022/04/06 12:02:23;;;;;;;7.70;1.52;;;16.90;61.30;;;;;;5016155;28;20042;-77
2022/04/06 12:05:00;;;;;;;10.07;1.70;;;16.80;61.30;;;;;;4990530;28;20061;-75
2022/04/06 12:07:25;;;;;;;6.65;1.63;;;16.80;61.30;;;;;;4996692;28;20082;-75
2022/04/06 12:09:51;;;;;;;6.10;1.88;;;16.80;61.40;;;;;;4993382;28;20481;-76
2022/04/06 12:12:18;;;;;;;5.20;1.42;;;16.80;61.30;;;;;;4979320;28;20050;-75
2022/04/06 12:14:44;;;;;;;5.32;1.40;;;16.80;61.40;;;;;;4996607;28;20074;-76
2022/04/06 12:17:12;;;;;;;6.20;1.30;;;16.80;61.40;;;;;;4996516;28;20046;-76
2022/04/06 12:19:38;;;;;;;6.95;1.52;;;16.70;61.40;;;;;;4996774;28;20086;-75
2022/04/06 12:22:07;;;;;;;7.32;1.70;;;16.70;61.40;;;;;;4996527;28;20492;-75
2022/04/06 12:24:41;;;;;;;10.38;1.80;;;16.70;61.30;;;;;;4996282;28;20362;-76
2022/04/06 12:27:07;;;;;;;7.80;1.60;;;16.70;61.40;;;;;;4993243;28;20046;-78
2022/04/06 12:29:35;;;;;;;7.18;1.63;;;16.70;61.30;;;;;;4979186;28;20054;-77
2022/04/06 12:32:02;;;;;;;6.70;1.80;;;16.70;61.40;;;;;;4995678;28;20465;-75
2022/04/06 12:34:40;;;;;;;8.05;1.85;;;16.60;61.40;;;;;;4995919;28;20047;-75
2022/04/06 12:39:57;;;;;;;8.10;1.63;;;16.60;61.40;;;;;;4996040;28;20375;-76
2022/04/06 12:42:23;;;;;;;6.35;1.63;;;16.60;61.40;;;;;;4994737;28;20056;-76
2022/04/06 12:45:01;;;;;;;5.88;1.23;;;16.60;61.40;;;;;;5010376;28;20159;-76
2022/04/06 12:47:27;;;;;;;10.10;2.25;;;16.50;61.30;;;;;;5011207;28;20042;-75
2022/04/06 12:50:13;;;;;;;7.80;1.77;;;16.60;61.60;;;;;;4997878;28;20096;-75
2022/04/06 12:52:39;;;;;;;9.27;2.25;;;16.60;61.70;;;;;;5015349;28;20102;-76
2022/04/06 12:55:10;;;;;;;9.05;2.47;;;16.60;62.20;;;;;;5003352;28;20326;-76
2022/04/06 12:57:37;;;;;;;7.32;1.63;;;16.60;62.50;;;;;;5015025;28;20081;-80
2022/04/06 13:00:08;;;;;;;14.43;2.65;;;16.70;62.80;;;;;;4997999;28;20042;-75